sensor_id;sensor_type;location;lat;lon;timestamp;temperature;humidity
27803;DHT22;15182;48.174;11.562;2022-10-16T00:02:23;19.40;99.90
27803;DHT22;15182;48.174;11.562;2022-10-16T00:04:54;19.40;99.90
27803;DHT22;15182;48.174;11.562;2022-10-16T00:07:26;19.40;99.90
27803;DHT22;15182;48.174;11.562;2022-10-16T00:09:57;19.40;99.90
27803;DHT22;15182;48.174;11.562;2022-10-16T00:12:29;19.40;99.90
27803;DHT22;15182;48.174;11.562;2022-10-16T00:15:01;19.40;99.90
27803;DHT22;15182;48.174;11.562;2022-10-16T00:17:34;19.30;99.90
27803;DHT22;15182;48.174;11.562;2022-10-16T00:20:07;19.30;99.90
27803;DHT22;15182;48.174;11.562;2022-10-16T00:22:39;19.30;99.90
27803;DHT22;15182;48.174;11.562;2022-10-16T00:25:10;19.30;99.90
27803;DHT22;15182;48.174;11.562;2022-10-16T00:27:42;19.30;99.90
27803;DHT22;15182;48.174;11.562;2022-10-16T00:30:14;19.30;99.90
27803;DHT22;15182;48.174;11.562;2022-10-16T00:32:46;19.30;99.90
27803;DHT22;15182;48.174;11.562;2022-10-16T00:35:17;19.20;99.90
27803;DHT22;15182;48.174;11.562;2022-10-16T00:37:48;19.30;99.90
27803;DHT22;15182;48.174;11.562;2022-10-16T00:40:20;19.20;99.90
27803;DHT22;15182;48.174;11.562;2022-10-16T00:42:51;19.20;99.90
27803;DHT22;15182;48.174;11.562;2022-10-16T00:45:24;19.20;99.90
27803;DHT22;15182;48.174;11.562;2022-10-16T00:47:57;19.20;99.90
27803;DHT22;15182;48.174;11.562;2022-10-16T00:50:31;19.20;99.90
27803;DHT22;15182;48.174;11.562;2022-10-16T00:53:03;19.20;99.90
27803;DHT22;15182;48.174;11.562;2022-10-16T00:55:35;19.20;99.90
27803;DHT22;15182;48.174;11.562;2022-10-16T00:58:07;19.20;99.90
27803;DHT22;15182;48.174;11.562;2022-10-16T01:00:39;19.20;99.90
27803;DHT22;15182;48.174;11.562;2022-10-16T01:03:23;19.20;99.90
27803;DHT22;15182;48.174;11.562;2022-10-16T01:06:01;19.10;99.90
27803;DHT22;15182;48.174;11.562;2022-10-16T01:08:49;19.20;99.90
27803;DHT22;15182;48.174;11.562;2022-10-16T01:11:27;19.20;99.90
27803;DHT22;15182;48.174;11.562;2022-10-16T01:14:09;19.10;99.90
27803;DHT22;15182;48.174;11.562;2022-10-16T01:16:49;19.10;99.90
27803;DHT22;15182;48.174;11.562;2022-10-16T01:19:26;19.10;99.90
27803;DHT22;15182;48.174;11.562;2022-10-16T01:22:07;19.10;99.90
27803;DHT22;15182;48.174;11.562;2022-10-16T01:24:43;19.10;99.90
27803;DHT22;15182;48.174;11.562;2022-10-16T01:27:23;19.10;99.90
27803;DHT22;15182;48.174;11.562;2022-10-16T01:30:01;19.00;99.90
27803;DHT22;15182;48.174;11.562;2022-10-16T01:35:14;19.00;99.90
27803;DHT22;15182;48.174;11.562;2022-10-16T01:37:56;19.10;99.90
27803;DHT22;15182;48.174;11.562;2022-10-16T01:40:32;19.00;99.90
27803;DHT22;15182;48.174;11.562;2022-10-16T01:43:10;19.00;99.90
27803;DHT22;15182;48.174;11.562;2022-10-16T01:45:46;19.00;99.90
27803;DHT22;15182;48.174;11.562;2022-10-16T01:48:19;19.00;99.90
27803;DHT22;15182;48.174;11.562;2022-10-16T01:50:54;19.00;99.90
27803;DHT22;15182;48.174;11.562;2022-10-16T01:53:27;19.00;99.90
27803;DHT22;15182;48.174;11.562;2022-10-16T01:56:00;19.00;99.90
27803;DHT22;15182;48.174;11.562;2022-10-16T01:58:40;19.00;99.90
27803;DHT22;15182;48.174;11.562;2022-10-16T02:01:15;19.00;99.90
27803;DHT22;15182;48.174;11.562;2022-10-16T02:03:49;19.00;99.90
27803;DHT22;15182;48.174;11.562;2022-10-16T02:06:22;19.00;99.90
27803;DHT22;15182;48.174;11.562;2022-10-16T02:08:55;19.00;99.90
27803;DHT22;15182;48.174;11.562;2022-10-16T02:11:27;19.00;99.90
27803;DHT22;15182;48.174;11.562;2022-10-16T02:14:03;19.00;99.90
27803;DHT22;15182;48.174;11.562;2022-10-16T02:16:38;19.00;99.90
27803;DHT22;15182;48.174;11.562;2022-10-16T02:19:13;19.00;99.90
27803;DHT22;15182;48.174;11.562;2022-10-16T02:21:52;19.00;99.90
27803;DHT22;15182;48.174;11.562;2022-10-16T02:24:30;19.00;99.90
27803;DHT22;15182;48.174;11.562;2022-10-16T02:27:05;19.00;99.90
27803;DHT22;15182;48.174;11.562;2022-10-16T02:29:42;19.00;99.90
27803;DHT22;15182;48.174;11.562;2022-10-16T02:32:21;19.00;99.90
27803;DHT22;15182;48.174;11.562;2022-10-16T02:34:59;18.90;99.90
27803;DHT22;15182;48.174;11.562;2022-10-16T02:37:31;18.90;99.90
27803;DHT22;15182;48.174;11.562;2022-10-16T02:40:03;18.90;99.90
27803;DHT22;15182;48.174;11.562;2022-10-16T02:42:37;18.90;99.90
27803;DHT22;15182;48.174;11.562;2022-10-16T02:45:12;18.90;99.90
27803;DHT22;15182;48.174;11.562;2022-10-16T02:47:43;18.90;99.90
27803;DHT22;15182;48.174;11.562;2022-10-16T02:50:15;18.90;99.90
27803;DHT22;15182;48.174;11.562;2022-10-16T02:52:47;18.90;99.90
27803;DHT22;15182;48.174;11.562;2022-10-16T02:55:18;18.80;99.90
27803;DHT22;15182;48.174;11.562;2022-10-16T02:57:49;18.80;99.90
27803;DHT22;15182;48.174;11.562;2022-10-16T03:00:22;18.80;99.90
27803;DHT22;15182;48.174;11.562;2022-10-16T03:02:54;18.80;99.90
27803;DHT22;15182;48.174;11.562;2022-10-16T03:05:25;18.80;99.90
27803;DHT22;15182;48.174;11.562;2022-10-16T03:07:56;18.80;99.90
27803;DHT22;15182;48.174;11.562;2022-10-16T03:10:29;18.90;99.90
27803;DHT22;15182;48.174;11.562;2022-10-16T03:13:00;18.80;99.90
27803;DHT22;15182;48.174;11.562;2022-10-16T03:15:33;18.80;99.90
27803;DHT22;15182;48.174;11.562;2022-10-16T03:18:05;18.80;99.90
27803;DHT22;15182;48.174;11.562;2022-10-16T03:20:36;18.80;99.90
27803;DHT22;15182;48.174;11.562;2022-10-16T03:23:08;18.80;99.90
27803;DHT22;15182;48.174;11.562;2022-10-16T03:25:39;18.70;99.90
27803;DHT22;15182;48.174;11.562;2022-10-16T03:28:10;18.70;99.90
27803;DHT22;15182;48.174;11.562;2022-10-16T03:30:44;18.70;99.90
27803;DHT22;15182;48.174;11.562;2022-10-16T03:33:15;18.70;99.90
27803;DHT22;15182;48.174;11.562;2022-10-16T03:35:53;18.70;99.90
27803;DHT22;15182;48.174;11.562;2022-10-16T03:38:25;18.60;99.90
27803;DHT22;15182;48.174;11.562;2022-10-16T03:40:56;18.60;99.90
27803;DHT22;15182;48.174;11.562;2022-10-16T03:43:27;18.70;99.90
27803;DHT22;15182;48.174;11.562;2022-10-16T03:46:00;18.70;99.90
27803;DHT22;15182;48.174;11.562;2022-10-16T03:48:31;18.70;99.90
27803;DHT22;15182;48.174;11.562;2022-10-16T03:51:03;18.70;99.90
27803;DHT22;15182;48.174;11.562;2022-10-16T03:53:34;18.60;99.90
27803;DHT22;15182;48.174;11.562;2022-10-16T03:56:06;18.60;99.90
27803;DHT22;15182;48.174;11.562;2022-10-16T03:58:37;18.60;99.90
27803;DHT22;15182;48.174;11.562;2022-10-16T04:01:10;18.60;99.90
27803;DHT22;15182;48.174;11.562;2022-10-16T04:03:41;18.70;99.90
27803;DHT22;15182;48.174;11.562;2022-10-16T04:06:12;18.70;99.90
27803;DHT22;15182;48.174;11.562;2022-10-16T04:08:44;18.60;99.90
27803;DHT22;15182;48.174;11.562;2022-10-16T04:11:15;18.70;99.90
27803;DHT22;15182;48.174;11.562;2022-10-16T04:13:47;18.60;99.90
27803;DHT22;15182;48.174;11.562;2022-10-16T04:16:19;18.70;99.90
27803;DHT22;15182;48.174;11.562;2022-10-16T04:18:50;18.70;99.90
27803;DHT22;15182;48.174;11.562;2022-10-16T04:21:22;18.70;99.90
27803;DHT22;15182;48.174;11.562;2022-10-16T04:23:53;18.70;99.90
27803;DHT22;15182;48.174;11.562;2022-10-16T04:26:24;18.70;99.90
27803;DHT22;15182;48.174;11.562;2022-10-16T04:28:56;18.70;99.90
27803;DHT22;15182;48.174;11.562;2022-10-16T04:31:29;18.70;99.90
27803;DHT22;15182;48.174;11.562;2022-10-16T04:34:00;18.70;99.90
27803;DHT22;15182;48.174;11.562;2022-10-16T04:36:32;18.70;99.90
27803;DHT22;15182;48.174;11.562;2022-10-16T04:39:03;18.70;99.90
27803;DHT22;15182;48.174;11.562;2022-10-16T04:41:34;18.70;99.90
27803;DHT22;15182;48.174;11.562;2022-10-16T04:44:06;18.70;99.90
27803;DHT22;15182;48.174;11.562;2022-10-16T04:46:39;18.70;99.90
27803;DHT22;15182;48.174;11.562;2022-10-16T04:49:12;18.70;99.90
27803;DHT22;15182;48.174;11.562;2022-10-16T04:51:44;18.70;99.90
27803;DHT22;15182;48.174;11.562;2022-10-16T04:54:15;18.70;99.90
27803;DHT22;15182;48.174;11.562;2022-10-16T04:56:46;18.70;99.90
27803;DHT22;15182;48.174;11.562;2022-10-16T04:59:21;18.60;99.90
27803;DHT22;15182;48.174;11.562;2022-10-16T05:01:54;18.70;99.90
27803;DHT22;15182;48.174;11.562;2022-10-16T05:04:25;18.70;99.90
27803;DHT22;15182;48.174;11.562;2022-10-16T05:06:56;18.70;99.90
27803;DHT22;15182;48.174;11.562;2022-10-16T05:09:28;18.60;99.90
27803;DHT22;15182;48.174;11.562;2022-10-16T05:11:59;18.70;99.90
27803;DHT22;15182;48.174;11.562;2022-10-16T05:14:31;18.70;99.90
27803;DHT22;15182;48.174;11.562;2022-10-16T05:17:04;18.70;99.90
27803;DHT22;15182;48.174;11.562;2022-10-16T05:19:35;18.70;99.90
27803;DHT22;15182;48.174;11.562;2022-10-16T05:22:07;18.70;99.90
27803;DHT22;15182;48.174;11.562;2022-10-16T05:24:38;18.70;99.90
27803;DHT22;15182;48.174;11.562;2022-10-16T05:27:09;18.70;99.90
27803;DHT22;15182;48.174;11.562;2022-10-16T05:29:47;18.70;99.90
27803;DHT22;15182;48.174;11.562;2022-10-16T05:32:21;18.70;99.90
27803;DHT22;15182;48.174;11.562;2022-10-16T05:34:52;18.70;99.90
27803;DHT22;15182;48.174;11.562;2022-10-16T05:37:25;18.70;99.90
27803;DHT22;15182;48.174;11.562;2022-10-16T05:39:58;18.70;99.90
27803;DHT22;15182;48.174;11.562;2022-10-16T05:42:30;18.70;99.90
27803;DHT22;15182;48.174;11.562;2022-10-16T05:45:02;18.70;99.90
27803;DHT22;15182;48.174;11.562;2022-10-16T05:47:35;18.70;99.90
27803;DHT22;15182;48.174;11.562;2022-10-16T05:50:07;18.70;99.90
27803;DHT22;15182;48.174;11.562;2022-10-16T05:52:39;18.70;99.90
27803;DHT22;15182;48.174;11.562;2022-10-16T05:55:10;18.70;99.90
27803;DHT22;15182;48.174;11.562;2022-10-16T05:57:41;18.70;99.90
27803;DHT22;15182;48.174;11.562;2022-10-16T06:00:14;18.70;99.90
27803;DHT22;15182;48.174;11.562;2022-10-16T06:02:46;18.70;99.90
27803;DHT22;15182;48.174;11.562;2022-10-16T06:05:19;18.70;99.90
27803;DHT22;15182;48.174;11.562;2022-10-16T06:07:51;18.70;99.90
27803;DHT22;15182;48.174;11.562;2022-10-16T06:10:24;18.70;99.90
27803;DHT22;15182;48.174;11.562;2022-10-16T06:12:56;18.70;99.90
27803;DHT22;15182;48.174;11.562;2022-10-16T06:15:28;18.70;99.90
27803;DHT22;15182;48.174;11.562;2022-10-16T06:18:00;18.70;99.90
27803;DHT22;15182;48.174;11.562;2022-10-16T06:20:32;18.60;99.90
27803;DHT22;15182;48.174;11.562;2022-10-16T06:23:03;18.70;99.90
27803;DHT22;15182;48.174;11.562;2022-10-16T06:25:34;18.60;99.90
27803;DHT22;15182;48.174;11.562;2022-10-16T06:28:05;18.60;99.90
27803;DHT22;15182;48.174;11.562;2022-10-16T06:30:36;18.60;99.90
27803;DHT22;15182;48.174;11.562;2022-10-16T06:33:09;18.60;99.90
27803;DHT22;15182;48.174;11.562;2022-10-16T06:35:40;18.60;99.90
27803;DHT22;15182;48.174;11.562;2022-10-16T06:38:11;18.60;99.90
27803;DHT22;15182;48.174;11.562;2022-10-16T06:40:43;18.60;99.90
27803;DHT22;15182;48.174;11.562;2022-10-16T06:43:14;18.60;99.90
27803;DHT22;15182;48.174;11.562;2022-10-16T06:45:50;18.60;99.90
27803;DHT22;15182;48.174;11.562;2022-10-16T06:48:24;18.60;99.90
27803;DHT22;15182;48.174;11.562;2022-10-16T06:51:00;18.60;99.90
27803;DHT22;15182;48.174;11.562;2022-10-16T06:53:36;18.60;99.90
27803;DHT22;15182;48.174;11.562;2022-10-16T06:56:10;18.60;99.90
27803;DHT22;15182;48.174;11.562;2022-10-16T06:58:43;18.60;99.90
27803;DHT22;15182;48.174;11.562;2022-10-16T07:01:16;18.60;99.90
27803;DHT22;15182;48.174;11.562;2022-10-16T07:03:52;18.60;99.90
27803;DHT22;15182;48.174;11.562;2022-10-16T07:06:26;18.60;99.90
27803;DHT22;15182;48.174;11.562;2022-10-16T07:09:00;18.60;99.90
27803;DHT22;15182;48.174;11.562;2022-10-16T07:11:33;18.60;99.90
27803;DHT22;15182;48.174;11.562;2022-10-16T07:14:08;18.60;99.90
27803;DHT22;15182;48.174;11.562;2022-10-16T07:16:44;18.60;99.90
27803;DHT22;15182;48.174;11.562;2022-10-16T07:19:17;18.60;99.90
27803;DHT22;15182;48.174;11.562;2022-10-16T07:21:48;18.60;99.90
27803;DHT22;15182;48.174;11.562;2022-10-16T07:24:20;18.70;99.90
27803;DHT22;15182;48.174;11.562;2022-10-16T07:26:51;18.60;99.90
27803;DHT22;15182;48.174;11.562;2022-10-16T07:29:23;18.60;99.90
27803;DHT22;15182;48.174;11.562;2022-10-16T07:31:55;18.70;99.90
27803;DHT22;15182;48.174;11.562;2022-10-16T07:34:27;18.70;99.90
27803;DHT22;15182;48.174;11.562;2022-10-16T07:36:58;18.70;99.90
27803;DHT22;15182;48.174;11.562;2022-10-16T07:39:30;18.70;99.90
27803;DHT22;15182;48.174;11.562;2022-10-16T07:42:01;18.70;99.90
27803;DHT22;15182;48.174;11.562;2022-10-16T07:44:32;18.70;99.90
27803;DHT22;15182;48.174;11.562;2022-10-16T07:47:05;18.70;99.90
27803;DHT22;15182;48.174;11.562;2022-10-16T07:49:37;18.80;99.90
27803;DHT22;15182;48.174;11.562;2022-10-16T07:52:09;18.80;99.90
27803;DHT22;15182;48.174;11.562;2022-10-16T07:54:41;18.80;99.90
27803;DHT22;15182;48.174;11.562;2022-10-16T07:57:12;18.90;99.90
27803;DHT22;15182;48.174;11.562;2022-10-16T07:59:47;18.90;99.90
27803;DHT22;15182;48.174;11.562;2022-10-16T08:02:18;19.00;99.90
27803;DHT22;15182;48.174;11.562;2022-10-16T08:04:51;19.00;99.90
27803;DHT22;15182;48.174;11.562;2022-10-16T08:07:23;19.10;99.90
27803;DHT22;15182;48.174;11.562;2022-10-16T08:09:54;19.20;99.90
27803;DHT22;15182;48.174;11.562;2022-10-16T08:12:26;19.30;99.90
27803;DHT22;15182;48.174;11.562;2022-10-16T08:14:57;19.40;99.90
27803;DHT22;15182;48.174;11.562;2022-10-16T08:17:29;19.50;99.90
27803;DHT22;15182;48.174;11.562;2022-10-16T08:20:01;19.60;99.90
27803;DHT22;15182;48.174;11.562;2022-10-16T08:22:33;19.70;99.90
27803;DHT22;15182;48.174;11.562;2022-10-16T08:25:04;19.80;99.90
27803;DHT22;15182;48.174;11.562;2022-10-16T08:27:36;19.90;99.90
27803;DHT22;15182;48.174;11.562;2022-10-16T08:30:09;20.10;99.90
27803;DHT22;15182;48.174;11.562;2022-10-16T08:32:44;20.20;99.90
27803;DHT22;15182;48.174;11.562;2022-10-16T08:35:17;20.30;99.90
27803;DHT22;15182;48.174;11.562;2022-10-16T08:37:49;20.40;99.90
27803;DHT22;15182;48.174;11.562;2022-10-16T08:40:23;20.50;99.90
27803;DHT22;15182;48.174;11.562;2022-10-16T08:43:11;20.70;99.90
27803;DHT22;15182;48.174;11.562;2022-10-16T08:46:14;20.80;99.90
27803;DHT22;15182;48.174;11.562;2022-10-16T08:48:50;21.00;99.90
27803;DHT22;15182;48.174;11.562;2022-10-16T08:51:26;21.10;99.90
27803;DHT22;15182;48.174;11.562;2022-10-16T08:54:01;21.20;99.90
27803;DHT22;15182;48.174;11.562;2022-10-16T08:56:34;21.30;99.90
27803;DHT22;15182;48.174;11.562;2022-10-16T08:59:09;21.40;99.90
27803;DHT22;15182;48.174;11.562;2022-10-16T09:01:44;21.60;99.90
27803;DHT22;15182;48.174;11.562;2022-10-16T09:04:39;21.70;99.90
27803;DHT22;15182;48.174;11.562;2022-10-16T09:07:21;21.80;99.90
27803;DHT22;15182;48.174;11.562;2022-10-16T09:10:06;22.00;99.90
27803;DHT22;15182;48.174;11.562;2022-10-16T09:12:48;22.10;99.90
27803;DHT22;15182;48.174;11.562;2022-10-16T09:15:29;22.20;99.90
27803;DHT22;15182;48.174;11.562;2022-10-16T09:18:04;22.40;99.50
27803;DHT22;15182;48.174;11.562;2022-10-16T09:20:45;22.50;99.30
27803;DHT22;15182;48.174;11.562;2022-10-16T09:23:27;22.60;98.80
27803;DHT22;15182;48.174;11.562;2022-10-16T09:26:00;22.70;98.70
27803;DHT22;15182;48.174;11.562;2022-10-16T09:28:32;22.80;98.90
27803;DHT22;15182;48.174;11.562;2022-10-16T09:31:04;23.00;98.40
27803;DHT22;15182;48.174;11.562;2022-10-16T09:33:38;23.10;98.20
27803;DHT22;15182;48.174;11.562;2022-10-16T09:36:11;23.20;97.80
27803;DHT22;15182;48.174;11.562;2022-10-16T09:38:44;23.30;97.40
27803;DHT22;15182;48.174;11.562;2022-10-16T09:41:21;23.40;96.80
27803;DHT22;15182;48.174;11.562;2022-10-16T09:43:55;23.60;96.50
27803;DHT22;15182;48.174;11.562;2022-10-16T09:46:30;23.70;96.40
27803;DHT22;15182;48.174;11.562;2022-10-16T09:49:04;23.70;95.90
27803;DHT22;15182;48.174;11.562;2022-10-16T09:51:49;23.90;95.80
27803;DHT22;15182;48.174;11.562;2022-10-16T09:54:33;24.00;95.90
27803;DHT22;15182;48.174;11.562;2022-10-16T09:57:16;24.10;95.40
27803;DHT22;15182;48.174;11.562;2022-10-16T09:59:49;24.20;94.90
27803;DHT22;15182;48.174;11.562;2022-10-16T10:02:30;24.30;95.00
27803;DHT22;15182;48.174;11.562;2022-10-16T10:05:03;24.50;94.70
27803;DHT22;15182;48.174;11.562;2022-10-16T10:07:42;24.60;95.10
27803;DHT22;15182;48.174;11.562;2022-10-16T10:10:24;24.70;94.30
27803;DHT22;15182;48.174;11.562;2022-10-16T10:12:57;24.80;94.10
27803;DHT22;15182;48.174;11.562;2022-10-16T10:15:33;25.00;94.70
27803;DHT22;15182;48.174;11.562;2022-10-16T10:18:19;25.20;93.90
27803;DHT22;15182;48.174;11.562;2022-10-16T10:20:59;25.30;93.50
27803;DHT22;15182;48.174;11.562;2022-10-16T10:23:33;25.40;93.50
27803;DHT22;15182;48.174;11.562;2022-10-16T10:26:10;25.60;94.00
27803;DHT22;15182;48.174;11.562;2022-10-16T10:28:53;25.80;93.70
27803;DHT22;15182;48.174;11.562;2022-10-16T10:31:31;26.00;92.80
27803;DHT22;15182;48.174;11.562;2022-10-16T10:34:15;26.20;92.30
27803;DHT22;15182;48.174;11.562;2022-10-16T10:37:09;26.30;91.90
27803;DHT22;15182;48.174;11.562;2022-10-16T10:39:56;26.50;91.70
27803;DHT22;15182;48.174;11.562;2022-10-16T10:42:37;26.60;91.90
27803;DHT22;15182;48.174;11.562;2022-10-16T10:45:24;26.90;91.40
27803;DHT22;15182;48.174;11.562;2022-10-16T10:48:18;27.10;91.40
27803;DHT22;15182;48.174;11.562;2022-10-16T10:50:56;27.30;90.80
27803;DHT22;15182;48.174;11.562;2022-10-16T10:53:36;27.50;90.60
27803;DHT22;15182;48.174;11.562;2022-10-16T10:56:22;27.80;88.70
27803;DHT22;15182;48.174;11.562;2022-10-16T10:59:06;28.00;88.80
27803;DHT22;15182;48.174;11.562;2022-10-16T11:01:50;28.20;87.70
27803;DHT22;15182;48.174;11.562;2022-10-16T11:04:38;28.40;86.60
27803;DHT22;15182;48.174;11.562;2022-10-16T11:07:21;28.70;84.50
27803;DHT22;15182;48.174;11.562;2022-10-16T11:10:01;28.70;84.80
27803;DHT22;15182;48.174;11.562;2022-10-16T11:12:38;28.80;82.80
27803;DHT22;15182;48.174;11.562;2022-10-16T11:15:17;28.90;83.00
27803;DHT22;15182;48.174;11.562;2022-10-16T11:17:57;28.90;81.30
27803;DHT22;15182;48.174;11.562;2022-10-16T11:20:33;29.00;80.70
27803;DHT22;15182;48.174;11.562;2022-10-16T11:23:10;29.10;81.00
27803;DHT22;15182;48.174;11.562;2022-10-16T11:25:48;29.10;81.00
27803;DHT22;15182;48.174;11.562;2022-10-16T11:28:23;29.20;79.60
27803;DHT22;15182;48.174;11.562;2022-10-16T11:31:02;29.30;79.10
27803;DHT22;15182;48.174;11.562;2022-10-16T11:33:42;29.40;79.00
27803;DHT22;15182;48.174;11.562;2022-10-16T11:36:19;29.50;78.10
27803;DHT22;15182;48.174;11.562;2022-10-16T11:38:56;29.60;76.60
27803;DHT22;15182;48.174;11.562;2022-10-16T11:41:34;29.70;75.20
27803;DHT22;15182;48.174;11.562;2022-10-16T11:44:15;29.70;75.30
27803;DHT22;15182;48.174;11.562;2022-10-16T11:47:09;29.60;74.50
27803;DHT22;15182;48.174;11.562;2022-10-16T11:49:45;29.70;74.30
27803;DHT22;15182;48.174;11.562;2022-10-16T11:52:20;29.70;74.80
27803;DHT22;15182;48.174;11.562;2022-10-16T11:54:56;29.80;73.70
27803;DHT22;15182;48.174;11.562;2022-10-16T11:57:34;29.80;72.90
27803;DHT22;15182;48.174;11.562;2022-10-16T12:00:14;29.80;72.60
27803;DHT22;15182;48.174;11.562;2022-10-16T12:02:58;29.80;72.20
27803;DHT22;15182;48.174;11.562;2022-10-16T12:05:39;29.70;72.30
27803;DHT22;15182;48.174;11.562;2022-10-16T12:08:21;29.70;72.60
27803;DHT22;15182;48.174;11.562;2022-10-16T12:10:52;29.70;74.50
27803;DHT22;15182;48.174;11.562;2022-10-16T13:29:43;24.30;86.40
27803;DHT22;15182;48.174;11.562;2022-10-16T13:32:17;25.20;80.80
27803;DHT22;15182;48.174;11.562;2022-10-16T13:34:50;25.40;81.10
27803;DHT22;15182;48.174;11.562;2022-10-16T13:37:24;25.60;79.80
27803;DHT22;15182;48.174;11.562;2022-10-16T13:40:09;25.70;80.90
27803;DHT22;15182;48.174;11.562;2022-10-16T13:42:51;25.90;79.20
27803;DHT22;15182;48.174;11.562;2022-10-16T13:45:26;26.00;78.10
27803;DHT22;15182;48.174;11.562;2022-10-16T13:48:05;26.00;77.30
27803;DHT22;15182;48.174;11.562;2022-10-16T13:50:40;26.10;77.60
27803;DHT22;15182;48.174;11.562;2022-10-16T13:53:15;26.10;79.20
27803;DHT22;15182;48.174;11.562;2022-10-16T13:55:47;26.10;78.50
27803;DHT22;15182;48.174;11.562;2022-10-16T13:58:20;26.10;79.60
27803;DHT22;15182;48.174;11.562;2022-10-16T14:00:57;26.10;78.10
27803;DHT22;15182;48.174;11.562;2022-10-16T14:03:30;26.10;78.50
27803;DHT22;15182;48.174;11.562;2022-10-16T14:06:06;26.10;78.60
27803;DHT22;15182;48.174;11.562;2022-10-16T14:08:43;26.10;79.00
27803;DHT22;15182;48.174;11.562;2022-10-16T14:11:25;26.10;78.90
27803;DHT22;15182;48.174;11.562;2022-10-16T14:13:57;26.10;78.50
27803;DHT22;15182;48.174;11.562;2022-10-16T14:16:31;26.00;78.10
27803;DHT22;15182;48.174;11.562;2022-10-16T14:19:04;26.00;77.80
27803;DHT22;15182;48.174;11.562;2022-10-16T14:21:44;26.00;77.50
27803;DHT22;15182;48.174;11.562;2022-10-16T14:24:27;26.00;77.60
27803;DHT22;15182;48.174;11.562;2022-10-16T14:27:00;25.90;76.10
27803;DHT22;15182;48.174;11.562;2022-10-16T14:29:50;25.90;76.80
27803;DHT22;15182;48.174;11.562;2022-10-16T14:32:31;25.90;76.50
27803;DHT22;15182;48.174;11.562;2022-10-16T14:35:03;25.90;76.30
27803;DHT22;15182;48.174;11.562;2022-10-16T14:37:41;25.90;75.90
27803;DHT22;15182;48.174;11.562;2022-10-16T14:40:16;25.90;75.90
27803;DHT22;15182;48.174;11.562;2022-10-16T14:42:48;25.90;74.90
27803;DHT22;15182;48.174;11.562;2022-10-16T14:45:22;25.90;76.70
27803;DHT22;15182;48.174;11.562;2022-10-16T14:47:59;25.90;75.60
27803;DHT22;15182;48.174;11.562;2022-10-16T14:50:34;25.90;75.10
27803;DHT22;15182;48.174;11.562;2022-10-16T14:53:08;25.90;75.30
27803;DHT22;15182;48.174;11.562;2022-10-16T14:55:43;25.90;75.00
27803;DHT22;15182;48.174;11.562;2022-10-16T14:58:17;25.80;76.50
27803;DHT22;15182;48.174;11.562;2022-10-16T15:00:50;25.80;76.40
27803;DHT22;15182;48.174;11.562;2022-10-16T15:03:22;25.80;76.30
27803;DHT22;15182;48.174;11.562;2022-10-16T15:05:53;25.80;77.80
27803;DHT22;15182;48.174;11.562;2022-10-16T15:08:25;25.80;77.70
27803;DHT22;15182;48.174;11.562;2022-10-16T15:10:56;25.80;77.10
27803;DHT22;15182;48.174;11.562;2022-10-16T15:13:27;25.80;77.90
27803;DHT22;15182;48.174;11.562;2022-10-16T15:15:59;25.70;77.40
27803;DHT22;15182;48.174;11.562;2022-10-16T15:18:31;25.70;77.20
27803;DHT22;15182;48.174;11.562;2022-10-16T15:21:03;25.70;78.40
27803;DHT22;15182;48.174;11.562;2022-10-16T15:23:35;25.70;78.50
27803;DHT22;15182;48.174;11.562;2022-10-16T15:26:07;25.60;78.80
27803;DHT22;15182;48.174;11.562;2022-10-16T15:28:39;25.60;78.60
27803;DHT22;15182;48.174;11.562;2022-10-16T15:31:10;25.60;79.40
27803;DHT22;15182;48.174;11.562;2022-10-16T15:33:43;25.60;79.00
27803;DHT22;15182;48.174;11.562;2022-10-16T15:36:30;25.50;79.30
27803;DHT22;15182;48.174;11.562;2022-10-16T15:39:04;25.50;79.70
27803;DHT22;15182;48.174;11.562;2022-10-16T15:41:39;25.50;79.70
27803;DHT22;15182;48.174;11.562;2022-10-16T15:44:10;25.50;79.40
27803;DHT22;15182;48.174;11.562;2022-10-16T15:46:42;25.50;79.50
27803;DHT22;15182;48.174;11.562;2022-10-16T15:49:14;25.50;79.30
27803;DHT22;15182;48.174;11.562;2022-10-16T15:51:47;25.40;79.30
27803;DHT22;15182;48.174;11.562;2022-10-16T15:54:20;25.40;79.30
27803;DHT22;15182;48.174;11.562;2022-10-16T15:56:51;25.40;79.60
27803;DHT22;15182;48.174;11.562;2022-10-16T15:59:22;25.40;79.80
27803;DHT22;15182;48.174;11.562;2022-10-16T16:01:53;25.30;80.10
27803;DHT22;15182;48.174;11.562;2022-10-16T16:04:26;25.30;80.10
27803;DHT22;15182;48.174;11.562;2022-10-16T16:07:00;25.30;80.40
27803;DHT22;15182;48.174;11.562;2022-10-16T16:09:33;25.20;80.60
27803;DHT22;15182;48.174;11.562;2022-10-16T16:12:04;25.20;81.10
27803;DHT22;15182;48.174;11.562;2022-10-16T16:14:37;25.20;81.70
27803;DHT22;15182;48.174;11.562;2022-10-16T16:17:08;25.20;82.00
27803;DHT22;15182;48.174;11.562;2022-10-16T16:19:42;25.20;82.20
27803;DHT22;15182;48.174;11.562;2022-10-16T16:22:14;25.10;82.50
27803;DHT22;15182;48.174;11.562;2022-10-16T16:24:47;25.10;82.90
27803;DHT22;15182;48.174;11.562;2022-10-16T16:27:19;25.00;83.30
27803;DHT22;15182;48.174;11.562;2022-10-16T16:29:54;25.00;83.00
27803;DHT22;15182;48.174;11.562;2022-10-16T16:32:25;25.00;83.50
27803;DHT22;15182;48.174;11.562;2022-10-16T16:34:58;24.90;83.70
27803;DHT22;15182;48.174;11.562;2022-10-16T16:37:31;24.80;83.80
27803;DHT22;15182;48.174;11.562;2022-10-16T16:40:03;24.80;84.30
27803;DHT22;15182;48.174;11.562;2022-10-16T16:42:37;24.80;84.40
27803;DHT22;15182;48.174;11.562;2022-10-16T16:45:08;24.70;84.80
27803;DHT22;15182;48.174;11.562;2022-10-16T16:47:41;24.60;84.70
27803;DHT22;15182;48.174;11.562;2022-10-16T16:50:13;24.60;84.90
27803;DHT22;15182;48.174;11.562;2022-10-16T16:52:45;24.60;85.20
27803;DHT22;15182;48.174;11.562;2022-10-16T16:55:17;24.50;85.30
27803;DHT22;15182;48.174;11.562;2022-10-16T16:57:49;24.40;85.40
27803;DHT22;15182;48.174;11.562;2022-10-16T17:00:21;24.40;85.60
27803;DHT22;15182;48.174;11.562;2022-10-16T17:02:52;24.30;85.90
27803;DHT22;15182;48.174;11.562;2022-10-16T17:05:25;24.20;85.40
27803;DHT22;15182;48.174;11.562;2022-10-16T17:07:56;24.20;86.10
27803;DHT22;15182;48.174;11.562;2022-10-16T17:10:28;24.20;86.20
27803;DHT22;15182;48.174;11.562;2022-10-16T17:13:00;24.10;86.30
27803;DHT22;15182;48.174;11.562;2022-10-16T17:15:31;24.10;86.70
27803;DHT22;15182;48.174;11.562;2022-10-16T17:18:02;24.10;86.70
27803;DHT22;15182;48.174;11.562;2022-10-16T17:20:37;24.10;86.80